sensor_id;sensor_type;location;lat;lon;timestamp;temperature;humidity
31575;DHT22;18182;1.328;103.810;2022-09-03T00:00:22;29.20;99.90
31575;DHT22;18182;1.328;103.810;2022-09-03T00:08:09;29.30;99.90
31575;DHT22;18182;1.328;103.810;2022-09-03T00:11:00;29.20;99.90
31575;DHT22;18182;1.328;103.810;2022-09-03T00:13:37;29.20;99.90
31575;DHT22;18182;1.328;103.810;2022-09-03T00:16:05;29.10;99.90
31575;DHT22;18182;1.328;103.810;2022-09-03T00:18:34;29.10;99.90
31575;DHT22;18182;1.328;103.810;2022-09-03T00:21:03;29.10;99.90
31575;DHT22;18182;1.328;103.810;2022-09-03T00:23:34;29.10;99.90
31575;DHT22;18182;1.328;103.810;2022-09-03T00:26:15;29.20;99.90
31575;DHT22;18182;1.328;103.810;2022-09-03T00:31:27;29.20;99.90
31575;DHT22;18182;1.328;103.810;2022-09-03T00:33:55;29.20;99.90
31575;DHT22;18182;1.328;103.810;2022-09-03T00:36:26;29.20;99.90
31575;DHT22;18182;1.328;103.810;2022-09-03T00:38:52;29.20;99.90
31575;DHT22;18182;1.328;103.810;2022-09-03T00:41:29;29.30;99.90
31575;DHT22;18182;1.328;103.810;2022-09-03T00:49:11;29.40;99.90
31575;DHT22;18182;1.328;103.810;2022-09-03T01:04:47;29.50;99.90
31575;DHT22;18182;1.328;103.810;2022-09-03T01:07:27;29.50;99.90
31575;DHT22;18182;1.328;103.810;2022-09-03T01:09:59;29.40;99.90
31575;DHT22;18182;1.328;103.810;2022-09-03T01:15:11;29.30;99.90
31575;DHT22;18182;1.328;103.810;2022-09-03T01:31:12;29.50;99.90
31575;DHT22;18182;1.328;103.810;2022-09-03T01:33:54;29.50;99.90
31575;DHT22;18182;1.328;103.810;2022-09-03T01:46:37;29.60;99.90
31575;DHT22;18182;1.328;103.810;2022-09-03T01:51:30;29.50;99.90
31575;DHT22;18182;1.328;103.810;2022-09-03T01:59:46;29.50;99.90
31575;DHT22;18182;1.328;103.810;2022-09-03T02:02:25;29.50;99.90
31575;DHT22;18182;1.328;103.810;2022-09-03T02:07:24;29.50;99.90
31575;DHT22;18182;1.328;103.810;2022-09-03T02:09:52;29.50;99.90
31575;DHT22;18182;1.328;103.810;2022-09-03T02:12:18;29.60;99.90
31575;DHT22;18182;1.328;103.810;2022-09-03T02:14:44;29.70;99.90
31575;DHT22;18182;1.328;103.810;2022-09-03T02:17:11;29.60;99.90
31575;DHT22;18182;1.328;103.810;2022-09-03T02:19:37;29.60;99.90
31575;DHT22;18182;1.328;103.810;2022-09-03T02:22:04;29.60;99.90
31575;DHT22;18182;1.328;103.810;2022-09-03T02:24:31;29.60;99.90
31575;DHT22;18182;1.328;103.810;2022-09-03T02:26:57;29.60;99.90
31575;DHT22;18182;1.328;103.810;2022-09-03T02:29:23;29.60;99.90
31575;DHT22;18182;1.328;103.810;2022-09-03T02:31:50;29.60;99.90
31575;DHT22;18182;1.328;103.810;2022-09-03T02:34:16;29.70;99.90
31575;DHT22;18182;1.328;103.810;2022-09-03T02:36:43;29.70;99.90
31575;DHT22;18182;1.328;103.810;2022-09-03T02:39:13;29.70;99.90
31575;DHT22;18182;1.328;103.810;2022-09-03T02:41:39;29.60;99.90
31575;DHT22;18182;1.328;103.810;2022-09-03T02:44:11;29.70;99.90
31575;DHT22;18182;1.328;103.810;2022-09-03T02:46:40;29.70;99.90
31575;DHT22;18182;1.328;103.810;2022-09-03T02:49:08;29.70;99.90
31575;DHT22;18182;1.328;103.810;2022-09-03T02:51:35;29.70;99.90
31575;DHT22;18182;1.328;103.810;2022-09-03T02:54:02;29.80;99.90
31575;DHT22;18182;1.328;103.810;2022-09-03T02:56:28;29.90;99.90
31575;DHT22;18182;1.328;103.810;2022-09-03T02:58:54;30.00;99.90
31575;DHT22;18182;1.328;103.810;2022-09-03T03:01:21;30.10;99.90
31575;DHT22;18182;1.328;103.810;2022-09-03T03:03:47;30.20;99.90
31575;DHT22;18182;1.328;103.810;2022-09-03T03:06:13;30.30;99.90
31575;DHT22;18182;1.328;103.810;2022-09-03T03:08:39;30.40;99.90
31575;DHT22;18182;1.328;103.810;2022-09-03T03:11:06;30.50;99.90
31575;DHT22;18182;1.328;103.810;2022-09-03T03:13:32;30.60;99.90
31575;DHT22;18182;1.328;103.810;2022-09-03T03:16:00;30.60;99.90
31575;DHT22;18182;1.328;103.810;2022-09-03T03:18:26;30.60;99.90
31575;DHT22;18182;1.328;103.810;2022-09-03T03:20:53;30.70;99.90
31575;DHT22;18182;1.328;103.810;2022-09-03T03:23:19;30.70;99.90
31575;DHT22;18182;1.328;103.810;2022-09-03T03:25:46;30.80;99.90
31575;DHT22;18182;1.328;103.810;2022-09-03T03:28:12;30.80;99.90
31575;DHT22;18182;1.328;103.810;2022-09-03T03:30:39;30.90;99.90
31575;DHT22;18182;1.328;103.810;2022-09-03T03:33:09;30.90;99.90
31575;DHT22;18182;1.328;103.810;2022-09-03T03:35:36;30.90;99.90
31575;DHT22;18182;1.328;103.810;2022-09-03T03:38:02;30.90;99.90
31575;DHT22;18182;1.328;103.810;2022-09-03T03:40:29;31.00;99.90
31575;DHT22;18182;1.328;103.810;2022-09-03T03:42:56;31.10;99.90
31575;DHT22;18182;1.328;103.810;2022-09-03T03:45:22;31.10;99.90
31575;DHT22;18182;1.328;103.810;2022-09-03T03:47:48;31.10;99.90
31575;DHT22;18182;1.328;103.810;2022-09-03T03:50:14;31.00;99.90
31575;DHT22;18182;1.328;103.810;2022-09-03T03:52:41;31.00;99.90
31575;DHT22;18182;1.328;103.810;2022-09-03T03:55:08;31.00;99.90
31575;DHT22;18182;1.328;103.810;2022-09-03T03:57:34;31.00;99.90
31575;DHT22;18182;1.328;103.810;2022-09-03T04:00:01;30.90;99.90
31575;DHT22;18182;1.328;103.810;2022-09-03T04:02:27;30.90;99.90
31575;DHT22;18182;1.328;103.810;2022-09-03T04:04:54;31.00;99.90
31575;DHT22;18182;1.328;103.810;2022-09-03T04:07:20;31.10;99.90
31575;DHT22;18182;1.328;103.810;2022-09-03T04:09:46;31.20;99.90
31575;DHT22;18182;1.328;103.810;2022-09-03T04:12:13;31.30;99.90
31575;DHT22;18182;1.328;103.810;2022-09-03T04:14:40;31.40;99.90
31575;DHT22;18182;1.328;103.810;2022-09-03T04:17:07;31.40;99.90
31575;DHT22;18182;1.328;103.810;2022-09-03T04:19:33;31.40;99.90
31575;DHT22;18182;1.328;103.810;2022-09-03T04:21:59;31.40;99.90
31575;DHT22;18182;1.328;103.810;2022-09-03T04:24:25;31.40;99.90
31575;DHT22;18182;1.328;103.810;2022-09-03T04:26:52;31.40;99.90
31575;DHT22;18182;1.328;103.810;2022-09-03T04:29:19;31.30;99.90
31575;DHT22;18182;1.328;103.810;2022-09-03T04:31:46;31.20;99.90
31575;DHT22;18182;1.328;103.810;2022-09-03T04:34:30;31.20;99.90
31575;DHT22;18182;1.328;103.810;2022-09-03T04:36:57;31.20;99.90
31575;DHT22;18182;1.328;103.810;2022-09-03T04:39:23;31.20;99.90
31575;DHT22;18182;1.328;103.810;2022-09-03T04:41:50;31.10;99.90
31575;DHT22;18182;1.328;103.810;2022-09-03T04:44:16;31.10;99.90
31575;DHT22;18182;1.328;103.810;2022-09-03T04:46:42;31.10;99.90
31575;DHT22;18182;1.328;103.810;2022-09-03T04:49:12;31.10;99.90
31575;DHT22;18182;1.328;103.810;2022-09-03T04:51:38;31.20;99.90
31575;DHT22;18182;1.328;103.810;2022-09-03T04:54:04;31.20;99.90
31575;DHT22;18182;1.328;103.810;2022-09-03T04:56:31;31.10;99.90
31575;DHT22;18182;1.328;103.810;2022-09-03T04:58:58;31.20;99.90
31575;DHT22;18182;1.328;103.810;2022-09-03T05:01:26;31.20;99.90
31575;DHT22;18182;1.328;103.810;2022-09-03T05:03:52;31.20;99.90
31575;DHT22;18182;1.328;103.810;2022-09-03T05:06:19;31.40;99.90
31575;DHT22;18182;1.328;103.810;2022-09-03T05:08:49;31.30;99.90
31575;DHT22;18182;1.328;103.810;2022-09-03T05:11:16;31.20;99.90
31575;DHT22;18182;1.328;103.810;2022-09-03T05:13:42;31.20;99.90
31575;DHT22;18182;1.328;103.810;2022-09-03T05:16:09;31.30;99.90
31575;DHT22;18182;1.328;103.810;2022-09-03T05:18:36;31.30;99.90
31575;DHT22;18182;1.328;103.810;2022-09-03T05:21:03;31.40;99.90
31575;DHT22;18182;1.328;103.810;2022-09-03T05:23:30;31.50;99.90
31575;DHT22;18182;1.328;103.810;2022-09-03T05:25:57;31.50;99.90
31575;DHT22;18182;1.328;103.810;2022-09-03T05:28:24;31.40;99.90
31575;DHT22;18182;1.328;103.810;2022-09-03T05:31:02;31.30;99.90
31575;DHT22;18182;1.328;103.810;2022-09-03T05:33:28;31.30;99.90
31575;DHT22;18182;1.328;103.810;2022-09-03T05:35:59;31.30;99.90
31575;DHT22;18182;1.328;103.810;2022-09-03T05:38:25;31.30;99.90
31575;DHT22;18182;1.328;103.810;2022-09-03T05:40:51;31.40;99.90
31575;DHT22;18182;1.328;103.810;2022-09-03T05:43:18;31.10;99.90
31575;DHT22;18182;1.328;103.810;2022-09-03T05:45:45;31.00;99.90
31575;DHT22;18182;1.328;103.810;2022-09-03T05:48:11;31.00;99.90
31575;DHT22;18182;1.328;103.810;2022-09-03T05:50:38;30.90;99.90
31575;DHT22;18182;1.328;103.810;2022-09-03T05:53:06;30.90;99.90
31575;DHT22;18182;1.328;103.810;2022-09-03T05:55:33;30.90;99.90
31575;DHT22;18182;1.328;103.810;2022-09-03T05:57:59;30.90;99.90
31575;DHT22;18182;1.328;103.810;2022-09-03T06:00:25;30.90;99.90
31575;DHT22;18182;1.328;103.810;2022-09-03T06:02:51;30.70;99.90
31575;DHT22;18182;1.328;103.810;2022-09-03T06:05:18;30.60;99.90
31575;DHT22;18182;1.328;103.810;2022-09-03T06:07:44;30.50;99.90
31575;DHT22;18182;1.328;103.810;2022-09-03T06:10:14;30.50;99.90
31575;DHT22;18182;1.328;103.810;2022-09-03T06:12:42;30.50;99.90
31575;DHT22;18182;1.328;103.810;2022-09-03T06:15:15;30.60;99.90
31575;DHT22;18182;1.328;103.810;2022-09-03T06:17:41;30.70;99.90
31575;DHT22;18182;1.328;103.810;2022-09-03T06:20:08;30.80;99.90
31575;DHT22;18182;1.328;103.810;2022-09-03T06:22:34;30.80;99.90
31575;DHT22;18182;1.328;103.810;2022-09-03T06:25:00;30.80;99.90
31575;DHT22;18182;1.328;103.810;2022-09-03T06:27:27;30.90;99.90
31575;DHT22;18182;1.328;103.810;2022-09-03T06:29:53;30.90;99.90
31575;DHT22;18182;1.328;103.810;2022-09-03T06:32:24;30.90;99.90
31575;DHT22;18182;1.328;103.810;2022-09-03T06:34:50;30.80;99.90
31575;DHT22;18182;1.328;103.810;2022-09-03T06:37:16;30.90;99.90
31575;DHT22;18182;1.328;103.810;2022-09-03T06:39:42;31.10;99.90
31575;DHT22;18182;1.328;103.810;2022-09-03T06:42:08;31.20;99.90
31575;DHT22;18182;1.328;103.810;2022-09-03T06:44:34;31.20;99.90
31575;DHT22;18182;1.328;103.810;2022-09-03T06:47:01;31.40;99.90
31575;DHT22;18182;1.328;103.810;2022-09-03T06:49:27;31.50;99.90
31575;DHT22;18182;1.328;103.810;2022-09-03T06:51:53;31.40;99.90
31575;DHT22;18182;1.328;103.810;2022-09-03T06:54:19;31.40;99.90
31575;DHT22;18182;1.328;103.810;2022-09-03T06:56:45;31.20;99.90
31575;DHT22;18182;1.328;103.810;2022-09-03T06:59:12;31.20;99.90
31575;DHT22;18182;1.328;103.810;2022-09-03T07:01:39;31.20;99.90
31575;DHT22;18182;1.328;103.810;2022-09-03T07:04:06;31.20;99.90
31575;DHT22;18182;1.328;103.810;2022-09-03T07:06:36;31.20;99.90
31575;DHT22;18182;1.328;103.810;2022-09-03T07:09:04;31.10;99.90
31575;DHT22;18182;1.328;103.810;2022-09-03T07:11:30;31.20;99.90
31575;DHT22;18182;1.328;103.810;2022-09-03T07:13:58;31.20;99.90
31575;DHT22;18182;1.328;103.810;2022-09-03T07:16:26;31.20;99.90
31575;DHT22;18182;1.328;103.810;2022-09-03T07:18:52;31.10;99.90
31575;DHT22;18182;1.328;103.810;2022-09-03T07:21:20;30.90;99.90
31575;DHT22;18182;1.328;103.810;2022-09-03T07:23:46;30.80;99.90
31575;DHT22;18182;1.328;103.810;2022-09-03T07:26:16;30.80;99.90
31575;DHT22;18182;1.328;103.810;2022-09-03T07:28:44;30.80;99.90
31575;DHT22;18182;1.328;103.810;2022-09-03T07:31:15;30.90;99.90
31575;DHT22;18182;1.328;103.810;2022-09-03T07:33:42;30.90;99.90
31575;DHT22;18182;1.328;103.810;2022-09-03T07:36:09;31.00;99.90
31575;DHT22;18182;1.328;103.810;2022-09-03T07:38:35;31.10;99.90
31575;DHT22;18182;1.328;103.810;2022-09-03T07:41:03;31.10;99.90
31575;DHT22;18182;1.328;103.810;2022-09-03T07:43:33;31.10;99.90
31575;DHT22;18182;1.328;103.810;2022-09-03T07:46:00;31.10;99.90
31575;DHT22;18182;1.328;103.810;2022-09-03T07:48:26;31.10;99.90
31575;DHT22;18182;1.328;103.810;2022-09-03T07:50:56;31.10;99.90
31575;DHT22;18182;1.328;103.810;2022-09-03T07:53:26;31.10;99.90
31575;DHT22;18182;1.328;103.810;2022-09-03T07:55:53;31.10;99.90
31575;DHT22;18182;1.328;103.810;2022-09-03T07:58:21;31.00;99.90
31575;DHT22;18182;1.328;103.810;2022-09-03T08:00:49;31.00;99.90
31575;DHT22;18182;1.328;103.810;2022-09-03T08:03:15;31.00;99.90
31575;DHT22;18182;1.328;103.810;2022-09-03T08:05:43;31.00;99.90
31575;DHT22;18182;1.328;103.810;2022-09-03T08:08:09;30.90;99.90
31575;DHT22;18182;1.328;103.810;2022-09-03T08:10:38;30.90;99.90
31575;DHT22;18182;1.328;103.810;2022-09-03T08:13:04;30.90;99.90
31575;DHT22;18182;1.328;103.810;2022-09-03T08:15:31;30.90;99.90
31575;DHT22;18182;1.328;103.810;2022-09-03T08:17:58;30.90;99.90
31575;DHT22;18182;1.328;103.810;2022-09-03T08:20:25;30.90;99.90
31575;DHT22;18182;1.328;103.810;2022-09-03T08:22:52;30.90;99.90
31575;DHT22;18182;1.328;103.810;2022-09-03T08:25:20;30.80;99.90
31575;DHT22;18182;1.328;103.810;2022-09-03T08:27:46;30.80;99.90
31575;DHT22;18182;1.328;103.810;2022-09-03T08:30:12;30.90;99.90
31575;DHT22;18182;1.328;103.810;2022-09-03T08:32:38;30.80;99.90
31575;DHT22;18182;1.328;103.810;2022-09-03T08:35:05;30.80;99.90
31575;DHT22;18182;1.328;103.810;2022-09-03T08:37:34;30.70;99.90
31575;DHT22;18182;1.328;103.810;2022-09-03T08:40:00;30.70;99.90
31575;DHT22;18182;1.328;103.810;2022-09-03T08:42:32;30.60;99.90
31575;DHT22;18182;1.328;103.810;2022-09-03T08:45:07;30.70;99.90
31575;DHT22;18182;1.328;103.810;2022-09-03T08:50:12;30.60;99.90
31575;DHT22;18182;1.328;103.810;2022-09-03T08:52:45;30.60;99.90
31575;DHT22;18182;1.328;103.810;2022-09-03T08:55:20;30.50;99.90
31575;DHT22;18182;1.328;103.810;2022-09-03T08:57:49;30.60;99.90
31575;DHT22;18182;1.328;103.810;2022-09-03T09:00:18;30.60;99.90
31575;DHT22;18182;1.328;103.810;2022-09-03T09:03:06;30.60;99.90
31575;DHT22;18182;1.328;103.810;2022-09-03T09:05:45;30.60;99.90
31575;DHT22;18182;1.328;103.810;2022-09-03T09:10:52;30.70;99.90
31575;DHT22;18182;1.328;103.810;2022-09-03T09:21:17;30.70;99.90
31575;DHT22;18182;1.328;103.810;2022-09-03T09:23:46;30.70;99.90
31575;DHT22;18182;1.328;103.810;2022-09-03T09:26:16;30.80;99.90
31575;DHT22;18182;1.328;103.810;2022-09-03T09:28:46;30.70;99.90
31575;DHT22;18182;1.328;103.810;2022-09-03T09:31:15;30.60;99.90
31575;DHT22;18182;1.328;103.810;2022-09-03T09:33:43;30.70;99.90
31575;DHT22;18182;1.328;103.810;2022-09-03T09:36:14;30.60;99.90
31575;DHT22;18182;1.328;103.810;2022-09-03T09:38:41;30.60;99.90
31575;DHT22;18182;1.328;103.810;2022-09-03T09:41:09;30.70;99.90
31575;DHT22;18182;1.328;103.810;2022-09-03T09:43:35;30.70;99.90
31575;DHT22;18182;1.328;103.810;2022-09-03T09:46:08;30.70;99.90
31575;DHT22;18182;1.328;103.810;2022-09-03T09:48:37;30.70;99.50
31575;DHT22;18182;1.328;103.810;2022-09-03T09:54:00;30.70;99.90
31575;DHT22;18182;1.328;103.810;2022-09-03T09:56:27;30.80;99.90
31575;DHT22;18182;1.328;103.810;2022-09-03T09:59:03;30.80;99.90
31575;DHT22;18182;1.328;103.810;2022-09-03T10:01:30;30.80;99.90
31575;DHT22;18182;1.328;103.810;2022-09-03T10:03:57;30.80;99.90
31575;DHT22;18182;1.328;103.810;2022-09-03T10:06:25;30.70;99.90
31575;DHT22;18182;1.328;103.810;2022-09-03T10:09:10;30.70;99.90
31575;DHT22;18182;1.328;103.810;2022-09-03T10:11:38;30.70;99.90
31575;DHT22;18182;1.328;103.810;2022-09-03T10:14:08;30.70;99.90
31575;DHT22;18182;1.328;103.810;2022-09-03T10:16:36;30.70;99.90
31575;DHT22;18182;1.328;103.810;2022-09-03T10:19:08;30.70;99.90
31575;DHT22;18182;1.328;103.810;2022-09-03T10:24:14;30.60;99.60
31575;DHT22;18182;1.328;103.810;2022-09-03T10:26:44;30.50;99.80
31575;DHT22;18182;1.328;103.810;2022-09-03T10:29:11;30.50;99.50
31575;DHT22;18182;1.328;103.810;2022-09-03T10:35:12;30.40;99.50
31575;DHT22;18182;1.328;103.810;2022-09-03T10:55:34;30.20;99.90
31575;DHT22;18182;1.328;103.810;2022-09-03T11:00:46;30.10;99.90
31575;DHT22;18182;1.328;103.810;2022-09-03T11:10:45;29.90;99.90
31575;DHT22;18182;1.328;103.810;2022-09-03T11:15:52;29.80;99.90
31575;DHT22;18182;1.328;103.810;2022-09-03T11:18:21;29.70;99.90
31575;DHT22;18182;1.328;103.810;2022-09-03T11:20:50;29.60;99.90
31575;DHT22;18182;1.328;103.810;2022-09-03T11:23:18;29.40;99.90
31575;DHT22;18182;1.328;103.810;2022-09-03T11:25:52;29.40;99.90
31575;DHT22;18182;1.328;103.810;2022-09-03T11:29:19;29.30;99.90
31575;DHT22;18182;1.328;103.810;2022-09-03T11:31:21;29.30;99.90
31575;DHT22;18182;1.328;103.810;2022-09-03T11:33:50;29.30;99.90
31575;DHT22;18182;1.328;103.810;2022-09-03T11:36:23;29.20;99.90
31575;DHT22;18182;1.328;103.810;2022-09-03T11:38:50;29.10;99.90
31575;DHT22;18182;1.328;103.810;2022-09-03T11:41:23;29.10;99.90
31575;DHT22;18182;1.328;103.810;2022-09-03T11:43:51;29.10;99.90
31575;DHT22;18182;1.328;103.810;2022-09-03T11:48:51;29.00;99.90
31575;DHT22;18182;1.328;103.810;2022-09-03T11:53:53;28.90;99.90
31575;DHT22;18182;1.328;103.810;2022-09-03T11:56:19;28.90;99.90
31575;DHT22;18182;1.328;103.810;2022-09-03T11:58:45;28.90;99.90
31575;DHT22;18182;1.328;103.810;2022-09-03T12:01:13;28.80;99.90
31575;DHT22;18182;1.328;103.810;2022-09-03T12:06:13;28.80;99.90
31575;DHT22;18182;1.328;103.810;2022-09-03T12:16:53;29.00;99.90
31575;DHT22;18182;1.328;103.810;2022-09-03T12:19:31;29.10;99.90
31575;DHT22;18182;1.328;103.810;2022-09-03T12:22:00;29.20;99.90
31575;DHT22;18182;1.328;103.810;2022-09-03T12:24:30;29.10;99.90
31575;DHT22;18182;1.328;103.810;2022-09-03T12:26:58;29.10;99.90
31575;DHT22;18182;1.328;103.810;2022-09-03T12:29:26;29.00;99.90
31575;DHT22;18182;1.328;103.810;2022-09-03T12:31:52;29.00;99.90
31575;DHT22;18182;1.328;103.810;2022-09-03T12:34:20;29.00;99.90
31575;DHT22;18182;1.328;103.810;2022-09-03T12:36:49;29.00;99.90
31575;DHT22;18182;1.328;103.810;2022-09-03T12:44:23;29.10;99.90
31575;DHT22;18182;1.328;103.810;2022-09-03T12:46:58;29.20;99.90
31575;DHT22;18182;1.328;103.810;2022-09-03T12:49:25;29.20;99.90
31575;DHT22;18182;1.328;103.810;2022-09-03T12:51:51;29.20;99.90
31575;DHT22;18182;1.328;103.810;2022-09-03T12:54:23;29.20;99.90
31575;DHT22;18182;1.328;103.810;2022-09-03T12:56:53;29.10;99.90
31575;DHT22;18182;1.328;103.810;2022-09-03T12:59:20;29.20;99.90
31575;DHT22;18182;1.328;103.810;2022-09-03T13:01:47;29.20;99.90
31575;DHT22;18182;1.328;103.810;2022-09-03T13:04:19;29.20;99.90
31575;DHT22;18182;1.328;103.810;2022-09-03T13:09:19;29.20;99.90
31575;DHT22;18182;1.328;103.810;2022-09-03T13:11:47;29.10;99.90
31575;DHT22;18182;1.328;103.810;2022-09-03T13:14:15;29.10;99.90
31575;DHT22;18182;1.328;103.810;2022-09-03T13:19:27;29.00;99.90
31575;DHT22;18182;1.328;103.810;2022-09-03T13:24:36;29.00;99.90
31575;DHT22;18182;1.328;103.810;2022-09-03T13:27:22;29.00;99.90
31575;DHT22;18182;1.328;103.810;2022-09-03T13:29:54;29.00;99.90
31575;DHT22;18182;1.328;103.810;2022-09-03T13:35:09;29.00;99.90
31575;DHT22;18182;1.328;103.810;2022-09-03T13:37:38;29.00;99.90
31575;DHT22;18182;1.328;103.810;2022-09-03T13:42:59;29.00;99.90
31575;DHT22;18182;1.328;103.810;2022-09-03T13:59:05;29.30;99.90
31575;DHT22;18182;1.328;103.810;2022-09-03T14:04:02;29.40;99.90
31575;DHT22;18182;1.328;103.810;2022-09-03T14:16:53;29.40;99.90
31575;DHT22;18182;1.328;103.810;2022-09-03T14:22:10;29.40;99.90
31575;DHT22;18182;1.328;103.810;2022-09-03T14:24:46;29.40;99.90
31575;DHT22;18182;1.328;103.810;2022-09-03T14:27:25;29.50;99.90
31575;DHT22;18182;1.328;103.810;2022-09-03T14:29:53;29.50;99.90
31575;DHT22;18182;1.328;103.810;2022-09-03T14:32:26;29.50;99.90
31575;DHT22;18182;1.328;103.810;2022-09-03T14:40:43;29.50;99.90
31575;DHT22;18182;1.328;103.810;2022-09-03T14:45:47;29.50;99.90
31575;DHT22;18182;1.328;103.810;2022-09-03T14:51:01;29.50;99.90
31575;DHT22;18182;1.328;103.810;2022-09-03T14:56:21;29.50;99.90
31575;DHT22;18182;1.328;103.810;2022-09-03T14:58:58;29.50;99.90
31575;DHT22;18182;1.328;103.810;2022-09-03T15:01:28;29.50;99.90
31575;DHT22;18182;1.328;103.810;2022-09-03T15:06:49;29.50;99.90
31575;DHT22;18182;1.328;103.810;2022-09-03T15:12:29;29.50;99.90
31575;DHT22;18182;1.328;103.810;2022-09-03T15:22:23;29.40;99.90
31575;DHT22;18182;1.328;103.810;2022-09-03T15:27:40;29.30;99.90
31575;DHT22;18182;1.328;103.810;2022-09-03T15:30:10;29.40;99.90
31575;DHT22;18182;1.328;103.810;2022-09-03T15:35:05;29.20;99.90
31575;DHT22;18182;1.328;103.810;2022-09-03T15:37:36;29.20;99.90
31575;DHT22;18182;1.328;103.810;2022-09-03T15:40:05;29.20;99.90
31575;DHT22;18182;1.328;103.810;2022-09-03T15:42:34;29.20;99.90
31575;DHT22;18182;1.328;103.810;2022-09-03T15:50:33;29.20;99.90
31575;DHT22;18182;1.328;103.810;2022-09-03T15:55:43;29.30;99.90
31575;DHT22;18182;1.328;103.810;2022-09-03T15:58:56;29.30;99.90
31575;DHT22;18182;1.328;103.810;2022-09-03T16:04:03;29.30;99.90
31575;DHT22;18182;1.328;103.810;2022-09-03T16:06:42;29.30;99.90
31575;DHT22;18182;1.328;103.810;2022-09-03T16:12:04;29.30;99.90
31575;DHT22;18182;1.328;103.810;2022-09-03T16:14:34;29.40;99.90
31575;DHT22;18182;1.328;103.810;2022-09-03T16:17:10;29.40;99.90
31575;DHT22;18182;1.328;103.810;2022-09-03T16:19:45;29.40;99.90
31575;DHT22;18182;1.328;103.810;2022-09-03T16:27:18;29.40;99.90
31575;DHT22;18182;1.328;103.810;2022-09-03T16:30:06;29.40;99.90
31575;DHT22;18182;1.328;103.810;2022-09-03T16:32:58;29.40;99.90
31575;DHT22;18182;1.328;103.810;2022-09-03T16:42:58;29.40;99.90
31575;DHT22;18182;1.328;103.810;2022-09-03T16:48:23;29.40;99.90
31575;DHT22;18182;1.328;103.810;2022-09-03T16:53:49;29.40;99.90
31575;DHT22;18182;1.328;103.810;2022-09-03T16:56:52;29.40;99.90
31575;DHT22;18182;1.328;103.810;2022-09-03T17:28:48;29.40;99.90
31575;DHT22;18182;1.328;103.810;2022-09-03T17:30:47;29.40;99.90
31575;DHT22;18182;1.328;103.810;2022-09-03T17:36:11;29.40;99.90
31575;DHT22;18182;1.328;103.810;2022-09-03T18:01:50;29.50;99.90
31575;DHT22;18182;1.328;103.810;2022-09-03T18:06:53;29.50;99.90
31575;DHT22;18182;1.328;103.810;2022-09-03T18:14:55;29.50;99.90
31575;DHT22;18182;1.328;103.810;2022-09-03T18:17:32;29.50;99.90
31575;DHT22;18182;1.328;103.810;2022-09-03T18:20:04;29.50;99.90
31575;DHT22;18182;1.328;103.810;2022-09-03T18:22:55;29.50;99.90
31575;DHT22;18182;1.328;103.810;2022-09-03T18:25:43;29.50;99.90
31575;DHT22;18182;1.328;103.810;2022-09-03T18:28:36;29.50;99.90
31575;DHT22;18182;1.328;103.810;2022-09-03T18:31:21;29.50;99.90
31575;DHT22;18182;1.328;103.810;2022-09-03T18:34:08;29.50;99.90
31575;DHT22;18182;1.328;103.810;2022-09-03T18:36:53;29.50;99.90
31575;DHT22;18182;1.328;103.810;2022-09-03T18:39:40;29.60;99.90
31575;DHT22;18182;1.328;103.810;2022-09-03T18:45:12;29.50;99.90
31575;DHT22;18182;1.328;103.810;2022-09-03T18:51:06;29.50;99.90
31575;DHT22;18182;1.328;103.810;2022-09-03T18:54:15;29.50;99.90
31575;DHT22;18182;1.328;103.810;2022-09-03T18:57:00;29.50;99.90
31575;DHT22;18182;1.328;103.810;2022-09-03T19:06:07;29.50;99.90
31575;DHT22;18182;1.328;103.810;2022-09-03T19:11:52;29.40;99.90
31575;DHT22;18182;1.328;103.810;2022-09-03T19:23:10;29.40;99.90
31575;DHT22;18182;1.328;103.810;2022-09-03T19:25:54;29.40;99.90
31575;DHT22;18182;1.328;103.810;2022-09-03T19:28:41;29.50;99.90
31575;DHT22;18182;1.328;103.810;2022-09-03T19:55:13;29.20;99.90
31575;DHT22;18182;1.328;103.810;2022-09-03T19:57:59;29.20;99.90
31575;DHT22;18182;1.328;103.810;2022-09-03T20:00:44;29.20;99.90
31575;DHT22;18182;1.328;103.810;2022-09-03T20:03:28;29.20;99.90
31575;DHT22;18182;1.328;103.810;2022-09-03T20:06:13;29.20;99.90
31575;DHT22;18182;1.328;103.810;2022-09-03T20:09:07;29.20;99.90
31575;DHT22;18182;1.328;103.810;2022-09-03T20:11:55;29.20;99.90
31575;DHT22;18182;1.328;103.810;2022-09-03T20:14:23;29.20;99.90
31575;DHT22;18182;1.328;103.810;2022-09-03T20:27:18;29.30;99.90
31575;DHT22;18182;1.328;103.810;2022-09-03T20:40:14;29.30;99.90
31575;DHT22;18182;1.328;103.810;2022-09-03T20:42:45;29.30;99.90
31575;DHT22;18182;1.328;103.810;2022-09-03T20:45:19;29.30;99.90
31575;DHT22;18182;1.328;103.810;2022-09-03T20:53:00;29.40;99.90
31575;DHT22;18182;1.328;103.810;2022-09-03T20:55:35;29.30;99.90
31575;DHT22;18182;1.328;103.810;2022-09-03T21:00:38;29.30;99.90
31575;DHT22;18182;1.328;103.810;2022-09-03T21:05:49;29.30;99.90
31575;DHT22;18182;1.328;103.810;2022-09-03T21:13:24;29.20;99.90
31575;DHT22;18182;1.328;103.810;2022-09-03T21:23:48;29.10;99.90
31575;DHT22;18182;1.328;103.810;2022-09-03T21:26:28;29.10;99.90
31575;DHT22;18182;1.328;103.810;2022-09-03T21:31:48;29.10;99.90
31575;DHT22;18182;1.328;103.810;2022-09-03T21:34:34;29.20;99.90
31575;DHT22;18182;1.328;103.810;2022-09-03T21:37:02;29.20;99.90
31575;DHT22;18182;1.328;103.810;2022-09-03T21:39:33;29.20;99.90
31575;DHT22;18182;1.328;103.810;2022-09-03T21:42:42;29.20;99.90
31575;DHT22;18182;1.328;103.810;2022-09-03T21:47:42;29.10;99.90
31575;DHT22;18182;1.328;103.810;2022-09-03T21:50:16;29.20;99.90
31575;DHT22;18182;1.328;103.810;2022-09-03T21:52:46;29.10;99.90
31575;DHT22;18182;1.328;103.810;2022-09-03T21:55:19;29.10;99.90
31575;DHT22;18182;1.328;103.810;2022-09-03T22:00:16;29.10;99.90
31575;DHT22;18182;1.328;103.810;2022-09-03T22:02:42;29.10;99.90
31575;DHT22;18182;1.328;103.810;2022-09-03T22:05:11;29.10;99.90
31575;DHT22;18182;1.328;103.810;2022-09-03T22:07:53;29.10;99.90
31575;DHT22;18182;1.328;103.810;2022-09-03T22:15:36;29.00;99.90
31575;DHT22;18182;1.328;103.810;2022-09-03T22:18:11;28.90;99.90
31575;DHT22;18182;1.328;103.810;2022-09-03T22:20:42;28.90;99.90
31575;DHT22;18182;1.328;103.810;2022-09-03T22:23:13;28.90;99.90
31575;DHT22;18182;1.328;103.810;2022-09-03T22:30:45;28.90;99.90
31575;DHT22;18182;1.328;103.810;2022-09-03T22:36:02;28.90;99.90